Time,TemperatureF,DewpointF,PressureIn,WindDirection,WindDirectionDegrees,WindSpeedMPH,WindSpeedGustMPH,Humidity,HourlyPrecipIn,Conditions,Clouds,dailyrainin,SoftwareType,DateUTC
2013-01-31 00:02:00,31.1,29.6,30.56,NNE,22,0.0,0.0,94,0.00,,---,0.00,VWS V13.01,2013-01-31 08:02:00,
2013-01-31 00:07:00,30.9,29.7,30.56,NNE,22,0.0,0.0,95,0.00,,---,0.00,VWS V13.01,2013-01-31 08:07:00,
2013-01-31 00:12:00,30.7,29.5,30.56,NNE,22,0.0,0.0,95,0.00,,---,0.00,VWS V13.01,2013-01-31 08:12:00,
2013-01-31 00:17:00,30.6,29.3,30.56,NNE,22,0.0,0.0,95,0.00,,---,0.00,VWS V13.01,2013-01-31 08:17:00,
2013-01-31 00:22:00,30.7,29.7,30.56,NNE,22,0.0,0.0,96,0.00,,---,0.00,VWS V13.01,2013-01-31 08:22:00,
2013-01-31 00:27:00,30.2,29.2,30.56,NNE,22,0.0,0.0,96,0.00,,---,0.00,VWS V13.01,2013-01-31 08:27:00,
2013-01-31 00:32:00,30.4,29.4,30.56,NNE,22,0.0,0.0,96,0.00,,---,0.00,VWS V13.01,2013-01-31 08:32:00,
2013-01-31 00:37:00,30.6,29.6,30.56,NNE,22,0.0,0.0,96,0.00,,---,0.00,VWS V13.01,2013-01-31 08:37:00,
2013-01-31 00:42:00,30.7,29.7,30.56,NNE,22,0.0,0.0,96,0.00,,---,0.00,VWS V13.01,2013-01-31 08:42:00,
2013-01-31 00:47:00,30.6,29.8,30.56,NNE,22,0.0,0.0,97,0.00,,---,0.00,VWS V13.01,2013-01-31 08:47:00,
2013-01-31 00:52:00,30.2,29.5,30.56,NNE,22,0.0,0.0,97,0.00,,---,0.00,VWS V13.01,2013-01-31 08:52:00,
2013-01-31 00:57:00,29.8,29.1,30.56,NNE,22,0.0,0.0,97,0.00,,---,0.00,VWS V13.01,2013-01-31 08:57:00,
2013-01-31 01:02:00,29.8,29.1,30.56,NNE,22,0.0,0.0,97,0.00,,---,0.00,VWS V13.01,2013-01-31 09:02:00,
2013-01-31 01:07:00,29.5,28.7,30.56,NNE,22,0.0,0.0,97,0.00,,---,0.00,VWS V13.01,2013-01-31 09:07:00,
2013-01-31 01:12:00,29.7,28.9,30.56,NNE,22,0.0,0.0,97,0.00,,---,0.00,VWS V13.01,2013-01-31 09:12:00,
2013-01-31 01:17:00,29.5,28.7,30.56,NNE,22,0.0,0.0,97,0.00,,---,0.00,VWS V13.01,2013-01-31 09:17:00,
2013-01-31 01:22:00,29.3,28.8,30.56,NNE,22,0.0,0.0,98,0.00,,---,0.00,VWS V13.01,2013-01-31 09:22:00,
2013-01-31 01:27:00,29.1,28.6,30.56,NNE,22,0.0,0.0,98,0.00,,---,0.00,VWS V13.01,2013-01-31 09:27:00,
2013-01-31 01:32:00,29.7,29.2,30.56,NNE,22,0.0,0.0,98,0.00,,---,0.00,VWS V13.01,2013-01-31 09:32:00,
2013-01-31 01:37:00,29.5,29.0,30.56,NNE,22,0.0,0.0,98,0.00,,---,0.00,VWS V13.01,2013-01-31 09:37:00,
2013-01-31 01:42:00,29.8,29.3,30.56,NNE,22,0.0,0.0,98,0.00,,---,0.00,VWS V13.01,2013-01-31 09:42:00,
2013-01-31 01:47:00,31.1,30.6,30.56,NNE,22,0.0,0.0,98,0.00,,---,0.00,VWS V13.01,2013-01-31 09:47:00,
2013-01-31 01:52:00,32.5,32.0,30.56,NNE,22,0.0,0.0,98,0.00,,---,0.00,VWS V13.01,2013-01-31 09:52:00,
2013-01-31 01:57:00,32.7,32.2,30.56,NNE,22,0.0,0.0,98,0.00,,---,0.00,VWS V13.01,2013-01-31 09:57:00,
2013-01-31 02:02:00,33.6,33.1,30.56,NNE,22,0.0,0.0,98,0.00,,---,0.00,VWS V13.01,2013-01-31 10:02:00,
2013-01-31 02:07:00,34.0,33.5,30.56,NNE,22,0.0,0.0,98,0.00,,---,0.00,VWS V13.01,2013-01-31 10:07:00,
2013-01-31 02:12:00,34.0,33.5,30.56,NNE,22,0.0,0.0,98,0.00,,---,0.00,VWS V13.01,2013-01-31 10:12:00,
2013-01-31 02:17:00,33.8,33.3,30.56,NNE,22,0.0,0.0,98,0.00,,---,0.00,VWS V13.01,2013-01-31 10:17:00,
2013-01-31 02:22:00,34.0,33.2,30.56,NNE,22,0.0,0.0,97,0.00,,---,0.00,VWS V13.01,2013-01-31 10:22:00,
2013-01-31 02:27:00,33.8,32.8,30.56,NNE,22,0.0,0.0,96,0.00,,---,0.00,VWS V13.01,2013-01-31 10:27:00,
2013-01-31 02:32:00,33.1,31.8,30.56,NNE,22,0.0,0.0,95,0.00,,---,0.00,VWS V13.01,2013-01-31 10:32:00,
2013-01-31 02:37:00,32.7,31.2,30.56,NNE,22,0.0,0.0,94,0.00,,---,0.00,VWS V13.01,2013-01-31 10:37:00,
2013-01-31 02:42:00,32.4,30.6,30.56,NNE,22,0.0,0.0,93,0.00,,---,0.00,VWS V13.01,2013-01-31 10:42:00,
2013-01-31 02:47:00,32.2,30.4,30.56,NNE,22,0.0,0.0,93,0.00,,---,0.00,VWS V13.01,2013-01-31 10:47:00,
2013-01-31 02:52:00,32.0,30.2,30.56,NNE,22,0.0,0.0,93,0.00,,---,0.00,VWS V13.01,2013-01-31 10:52:00,
2013-01-31 02:57:00,31.6,29.9,30.56,NNE,22,0.0,0.0,93,0.00,,---,0.00,VWS V13.01,2013-01-31 10:57:00,
2013-01-31 03:02:00,31.1,29.3,30.56,NNE,22,0.0,0.0,93,0.00,,---,0.00,VWS V13.01,2013-01-31 11:02:00,
2013-01-31 03:07:00,30.9,29.1,30.56,NNE,22,0.0,0.0,93,0.00,,---,0.00,VWS V13.01,2013-01-31 11:07:00,
2013-01-31 03:12:00,30.6,28.8,30.56,NNE,22,0.0,0.0,93,0.00,,---,0.00,VWS V13.01,2013-01-31 11:12:00,
2013-01-31 03:17:00,30.4,28.9,30.56,NNE,22,0.0,0.0,94,0.00,,---,0.00,VWS V13.01,2013-01-31 11:17:00,
2013-01-31 03:22:00,30.4,28.9,30.56,NNE,22,0.0,0.0,94,0.00,,---,0.00,VWS V13.01,2013-01-31 11:22:00,
2013-01-31 03:27:00,30.7,29.5,30.56,NNE,22,0.0,0.0,95,0.00,,---,0.00,VWS V13.01,2013-01-31 11:27:00,
2013-01-31 03:32:00,30.4,29.4,30.56,NNE,22,0.0,0.0,96,0.00,,---,0.00,VWS V13.01,2013-01-31 11:32:00,
2013-01-31 03:37:00,30.0,29.0,30.56,NNE,22,0.0,0.0,96,0.00,,---,0.00,VWS V13.01,2013-01-31 11:37:00,
2013-01-31 03:42:00,30.6,29.6,30.56,NNE,22,0.0,0.0,96,0.00,,---,0.00,VWS V13.01,2013-01-31 11:42:00,
2013-01-31 03:47:00,30.0,29.3,30.56,NNE,22,0.0,0.0,97,0.00,,---,0.00,VWS V13.01,2013-01-31 11:47:00,
2013-01-31 03:52:00,30.2,29.5,30.56,NNE,22,0.0,0.0,97,0.00,,---,0.00,VWS V13.01,2013-01-31 11:52:00,
2013-01-31 03:57:00,30.7,30.2,30.56,NNE,22,0.0,0.0,98,0.00,,---,0.00,VWS V13.01,2013-01-31 11:57:00,
2013-01-31 04:02:00,30.9,30.4,30.56,NNE,22,0.0,0.0,98,0.00,,---,0.00,VWS V13.01,2013-01-31 12:02:00,
2013-01-31 04:07:00,31.1,30.6,30.56,NNE,22,0.0,0.0,98,0.00,,---,0.00,VWS V13.01,2013-01-31 12:07:00,
2013-01-31 04:12:00,31.5,31.0,30.56,NNE,22,0.0,0.0,98,0.00,,---,0.00,VWS V13.01,2013-01-31 12:12:00,
2013-01-31 04:17:00,31.5,31.0,30.56,NNE,22,0.0,0.0,98,0.00,,---,0.00,VWS V13.01,2013-01-31 12:17:00,
2013-01-31 04:22:00,31.8,31.3,30.53,NNE,22,0.0,0.0,98,0.00,,---,0.00,VWS V13.01,2013-01-31 12:22:00,
2013-01-31 04:27:00,32.2,31.7,30.53,NNE,22,0.0,0.0,98,0.00,,---,0.00,VWS V13.01,2013-01-31 12:27:00,
2013-01-31 04:32:00,32.2,31.7,30.53,NNE,22,0.0,0.0,98,0.00,,---,0.00,VWS V13.01,2013-01-31 12:32:00,
2013-01-31 04:37:00,31.3,30.8,30.53,NNE,22,0.0,0.0,98,0.00,,---,0.00,VWS V13.01,2013-01-31 12:37:00,
2013-01-31 04:42:00,30.4,29.6,30.53,NNE,22,0.0,0.0,97,0.00,,---,0.00,VWS V13.01,2013-01-31 12:42:00,
2013-01-31 04:47:00,29.7,28.9,30.53,NNE,22,0.0,0.0,97,0.00,,---,0.00,VWS V13.01,2013-01-31 12:47:00,
2013-01-31 04:52:00,29.3,28.6,30.53,NNE,22,0.0,0.0,97,0.00,,---,0.00,VWS V13.01,2013-01-31 12:52:00,
2013-01-31 04:57:00,28.8,28.0,30.53,NNE,22,0.0,0.0,97,0.00,,---,0.00,VWS V13.01,2013-01-31 12:57:00,
2013-01-31 05:02:00,28.2,27.5,30.53,NNE,22,0.0,0.0,97,0.00,,---,0.00,VWS V13.01,2013-01-31 13:02:00,
2013-01-31 05:07:00,28.0,27.3,30.53,NNE,22,0.0,0.0,97,0.00,,---,0.00,VWS V13.01,2013-01-31 13:07:00,
2013-01-31 05:12:00,28.0,27.5,30.53,NNE,22,0.0,0.0,98,0.00,,---,0.00,VWS V13.01,2013-01-31 13:12:00,
2013-01-31 05:17:00,27.7,27.2,30.53,NNE,22,0.0,0.0,98,0.00,,---,0.00,VWS V13.01,2013-01-31 13:17:00,
2013-01-31 05:22:00,27.7,27.2,30.53,NNE,22,0.0,0.0,98,0.00,,---,0.00,VWS V13.01,2013-01-31 13:22:00,
2013-01-31 05:27:00,27.0,26.5,30.53,NNE,22,0.0,0.0,98,0.00,,---,0.00,VWS V13.01,2013-01-31 13:27:00,
2013-01-31 05:32:00,27.0,26.5,30.53,NNE,22,0.0,0.0,98,0.00,,---,0.00,VWS V13.01,2013-01-31 13:32:00,
2013-01-31 05:37:00,26.2,25.8,30.53,NNE,22,0.0,0.0,98,0.00,,---,0.00,VWS V13.01,2013-01-31 13:37:00,
2013-01-31 05:42:00,26.8,26.3,30.53,NNE,22,0.0,0.0,98,0.00,,---,0.00,VWS V13.01,2013-01-31 13:42:00,
2013-01-31 05:47:00,26.4,25.9,30.53,NNE,22,0.0,0.0,98,0.00,,---,0.00,VWS V13.01,2013-01-31 13:47:00,
2013-01-31 05:52:00,26.2,25.8,30.53,NNE,22,0.0,0.0,98,0.00,,---,0.00,VWS V13.01,2013-01-31 13:52:00,
2013-01-31 05:57:00,26.2,25.8,30.53,NNE,22,0.0,0.0,98,0.00,,---,0.00,VWS V13.01,2013-01-31 13:57:00,
2013-01-31 06:02:00,26.2,25.8,30.53,NNE,22,0.0,0.0,98,0.00,,---,0.00,VWS V13.01,2013-01-31 14:02:00,
2013-01-31 06:07:00,26.1,25.6,30.53,NNE,22,0.0,0.0,98,0.00,,---,0.00,VWS V13.01,2013-01-31 14:07:00,
2013-01-31 06:12:00,26.2,25.8,30.53,NNE,22,0.0,0.0,98,0.00,,---,0.00,VWS V13.01,2013-01-31 14:12:00,
2013-01-31 06:17:00,26.1,25.6,30.53,NNE,22,0.0,0.0,98,0.00,,---,0.00,VWS V13.01,2013-01-31 14:17:00,
2013-01-31 06:22:00,25.7,25.2,30.53,NNE,22,0.0,0.0,98,0.00,,---,0.00,VWS V13.01,2013-01-31 14:22:00,
2013-01-31 06:27:00,25.7,25.2,30.53,NNE,22,0.0,0.0,98,0.00,,---,0.00,VWS V13.01,2013-01-31 14:27:00,
2013-01-31 06:32:00,25.5,25.0,30.53,NNE,22,0.0,0.0,98,0.00,,---,0.00,VWS V13.01,2013-01-31 14:32:00,
2013-01-31 06:37:00,25.7,25.2,30.53,NNE,22,0.0,0.0,98,0.00,,---,0.00,VWS V13.01,2013-01-31 14:37:00,
2013-01-31 06:42:00,25.9,25.4,30.53,NNE,22,0.0,0.0,98,0.00,,---,0.00,VWS V13.01,2013-01-31 14:42:00,
2013-01-31 06:47:00,25.7,25.2,30.53,NNE,22,0.0,0.0,98,0.00,,---,0.00,VWS V13.01,2013-01-31 14:47:00,
2013-01-31 06:52:00,26.2,25.8,30.53,NNE,22,0.0,0.0,98,0.00,,---,0.00,VWS V13.01,2013-01-31 14:52:00,
2013-01-31 06:57:00,26.8,26.3,30.53,NNE,22,0.0,0.0,98,0.00,,---,0.00,VWS V13.01,2013-01-31 14:57:00,
2013-01-31 07:02:00,26.8,26.3,30.53,NNE,22,0.0,0.0,98,0.00,,---,0.00,VWS V13.01,2013-01-31 15:02:00,
2013-01-31 07:07:00,26.6,26.1,30.53,NNE,22,0.0,0.0,98,0.00,,---,0.00,VWS V13.01,2013-01-31 15:07:00,
2013-01-31 07:12:00,26.6,26.1,30.53,NNE,22,0.0,0.0,98,0.00,,---,0.00,VWS V13.01,2013-01-31 15:12:00,
2013-01-31 07:17:00,26.4,25.9,30.53,NNE,22,0.0,0.0,98,0.00,,---,0.00,VWS V13.01,2013-01-31 15:17:00,
2013-01-31 07:22:00,26.2,25.8,30.53,NNE,22,0.0,0.0,98,0.00,,---,0.00,VWS V13.01,2013-01-31 15:22:00,
2013-01-31 07:27:00,26.1,25.6,30.53,NNE,22,0.0,0.0,98,0.00,,---,0.00,VWS V13.01,2013-01-31 15:27:00,
2013-01-31 07:32:00,26.1,25.6,30.53,NNE,22,0.0,0.0,98,0.00,,---,0.00,VWS V13.01,2013-01-31 15:32:00,
2013-01-31 07:37:00,26.6,26.1,30.53,NNE,22,0.0,0.0,98,0.00,,---,0.00,VWS V13.01,2013-01-31 15:37:00,
2013-01-31 07:42:00,26.2,25.8,30.53,NNE,22,0.0,0.0,98,0.00,,---,0.00,VWS V13.01,2013-01-31 15:42:00,
2013-01-31 07:47:00,25.9,25.4,30.53,NNE,22,0.0,0.0,98,0.00,,---,0.00,VWS V13.01,2013-01-31 15:47:00,
2013-01-31 07:52:00,25.9,25.4,30.53,NNE,22,0.0,0.0,98,0.00,,---,0.00,VWS V13.01,2013-01-31 15:52:00,
2013-01-31 07:56:00,26.1,25.6,30.53,NNE,22,0.0,0.0,98,0.00,,---,0.00,VWS V13.01,2013-01-31 15:56:00,
2013-01-31 08:01:00,26.1,25.6,30.53,NNE,22,0.0,0.0,98,0.00,,---,0.00,VWS V13.01,2013-01-31 16:01:00,
2013-01-31 08:06:00,25.7,25.2,30.53,NNE,22,0.0,0.0,98,0.00,,---,0.00,VWS V13.01,2013-01-31 16:06:00,
2013-01-31 08:11:00,25.9,25.4,30.53,NNE,22,0.0,0.0,98,0.00,,---,0.00,VWS V13.01,2013-01-31 16:11:00,
2013-01-31 08:16:00,26.1,25.6,30.53,NNE,22,0.0,0.0,98,0.00,,---,0.00,VWS V13.01,2013-01-31 16:16:00,
2013-01-31 08:21:00,26.4,25.9,30.53,NNE,22,0.0,0.0,98,0.00,,---,0.00,VWS V13.01,2013-01-31 16:21:00,
2013-01-31 08:26:00,27.5,27.0,30.53,NNE,22,0.0,0.0,98,0.00,,---,0.00,VWS V13.01,2013-01-31 16:26:00,
2013-01-31 08:31:00,28.6,28.1,30.53,NNE,22,0.0,0.0,98,0.00,,---,0.00,VWS V13.01,2013-01-31 16:31:00,
2013-01-31 08:36:00,29.3,28.8,30.53,NNE,22,0.0,0.0,98,0.00,,---,0.00,VWS V13.01,2013-01-31 16:36:00,
2013-01-31 08:41:00,30.6,30.1,30.53,NNE,22,0.0,0.0,98,0.00,,---,0.00,VWS V13.01,2013-01-31 16:41:00,
2013-01-31 08:46:00,31.8,31.3,30.53,NNE,22,0.0,0.0,98,0.00,,---,0.00,VWS V13.01,2013-01-31 16:46:00,
2013-01-31 08:51:00,32.7,32.2,30.56,NNE,22,0.0,0.0,98,0.00,,---,0.00,VWS V13.01,2013-01-31 16:51:00,
2013-01-31 08:56:00,33.8,33.3,30.56,NNE,22,0.0,0.0,98,0.00,,---,0.00,VWS V13.01,2013-01-31 16:56:00,
2013-01-31 09:01:00,34.7,34.2,30.56,NNE,22,0.0,0.0,98,0.00,,---,0.00,VWS V13.01,2013-01-31 17:01:00,
2013-01-31 09:06:00,36.7,36.2,30.53,NNE,22,0.0,0.0,98,0.00,,---,0.00,VWS V13.01,2013-01-31 17:06:00,
2013-01-31 09:11:00,37.0,36.5,30.53,NNE,22,0.0,0.0,98,0.00,,---,0.00,VWS V13.01,2013-01-31 17:11:00,
2013-01-31 09:16:00,37.2,36.7,30.53,NNE,22,0.0,0.0,98,0.00,,---,0.00,VWS V13.01,2013-01-31 17:16:00,
2013-01-31 09:21:00,37.6,36.3,30.53,NE,45,0.0,0.0,95,0.00,,---,0.00,VWS V13.01,2013-01-31 17:21:00,
2013-01-31 09:26:00,37.9,35.8,30.53,NE,45,0.0,0.0,92,0.00,,---,0.00,VWS V13.01,2013-01-31 17:26:00,
2013-01-31 09:31:00,37.9,34.7,30.53,NE,45,0.0,0.0,88,0.00,,---,0.00,VWS V13.01,2013-01-31 17:31:00,
2013-01-31 09:36:00,37.8,34.0,30.53,NE,45,0.0,0.0,86,0.00,,---,0.00,VWS V13.01,2013-01-31 17:36:00,
2013-01-31 09:41:00,38.1,33.1,30.53,NE,45,0.0,0.0,82,0.00,,---,0.00,VWS V13.01,2013-01-31 17:41:00,
2013-01-31 09:46:00,38.5,32.2,30.53,NE,45,0.0,0.0,78,0.00,,---,0.00,VWS V13.01,2013-01-31 17:46:00,
2013-01-31 09:51:00,38.8,32.3,30.53,NE,45,0.0,0.0,77,0.00,,---,0.00,VWS V13.01,2013-01-31 17:51:00,
2013-01-31 09:56:00,39.0,31.5,30.53,NE,45,0.0,0.0,74,0.00,,---,0.00,VWS V13.01,2013-01-31 17:56:00,
2013-01-31 10:01:00,39.4,31.1,30.53,NE,45,0.0,0.0,72,0.00,,---,0.00,VWS V13.01,2013-01-31 18:01:00,
2013-01-31 10:06:00,40.1,31.5,30.53,NE,45,0.0,0.0,71,0.00,,---,0.00,VWS V13.01,2013-01-31 18:06:00,
2013-01-31 10:11:00,41.2,31.8,30.53,NE,45,0.0,0.0,69,0.00,,---,0.00,VWS V13.01,2013-01-31 18:11:00,
2013-01-31 10:16:00,41.7,31.6,30.53,NE,45,0.0,0.0,67,0.00,,---,0.00,VWS V13.01,2013-01-31 18:16:00,
2013-01-31 10:21:00,43.0,30.9,30.53,NE,45,0.0,0.0,62,0.00,,---,0.00,VWS V13.01,2013-01-31 18:21:00,
2013-01-31 10:26:00,43.0,29.6,30.53,NE,45,2.7,2.7,59,0.00,,---,0.00,VWS V13.01,2013-01-31 18:26:00,
2013-01-31 10:31:00,43.5,29.7,30.53,NE,45,3.6,3.6,58,0.00,,---,0.00,VWS V13.01,2013-01-31 18:31:00,
2013-01-31 10:36:00,43.3,29.6,30.53,NE,45,0.0,0.0,58,0.00,,---,0.00,VWS V13.01,2013-01-31 18:36:00,
2013-01-31 10:41:00,44.1,29.8,30.53,NE,45,0.0,0.0,57,0.00,,---,0.00,VWS V13.01,2013-01-31 18:41:00,
2013-01-31 10:46:00,43.9,29.2,30.53,NE,45,0.0,2.2,56,0.00,,---,0.00,VWS V13.01,2013-01-31 18:46:00,
2013-01-31 10:51:00,43.9,29.2,30.53,NE,45,2.2,2.7,56,0.00,,---,0.00,VWS V13.01,2013-01-31 18:51:00,
2013-01-31 10:56:00,43.7,29.0,30.53,NE,45,0.0,0.0,56,0.00,,---,0.00,VWS V13.01,2013-01-31 18:56:00,
2013-01-31 11:01:00,43.7,29.5,30.53,NE,45,0.0,0.0,57,0.00,,---,0.00,VWS V13.01,2013-01-31 19:01:00,
2013-01-31 11:06:00,43.5,28.9,30.53,NE,45,0.0,0.0,56,0.00,,---,0.00,VWS V13.01,2013-01-31 19:06:00,
2013-01-31 11:11:00,43.5,29.3,30.53,East,90,2.7,2.7,57,0.00,,---,0.00,VWS V13.01,2013-01-31 19:11:00,
2013-01-31 11:16:00,43.7,29.9,30.53,East,90,0.0,3.1,58,0.00,,---,0.00,VWS V13.01,2013-01-31 19:16:00,
2013-01-31 11:21:00,43.9,30.1,30.53,ESE,112,2.7,3.1,58,0.00,,---,0.00,VWS V13.01,2013-01-31 19:21:00,
2013-01-31 11:26:00,44.4,30.2,30.53,ESE,112,0.0,0.0,57,0.00,,---,0.00,VWS V13.01,2013-01-31 19:26:00,
2013-01-31 11:31:00,45.3,30.1,30.53,ESE,112,0.0,0.0,55,0.00,,---,0.00,VWS V13.01,2013-01-31 19:31:00,
2013-01-31 11:36:00,45.5,29.4,30.50,SW,225,2.2,3.1,53,0.00,,---,0.00,VWS V13.01,2013-01-31 19:36:00,
2013-01-31 11:41:00,46.4,29.8,30.50,South,180,0.0,0.0,52,0.00,,---,0.00,VWS V13.01,2013-01-31 19:41:00,
2013-01-31 11:46:00,46.9,29.3,30.50,South,180,2.2,2.7,50,0.00,,---,0.00,VWS V13.01,2013-01-31 19:46:00,
2013-01-31 11:51:00,47.5,29.8,30.50,South,180,2.7,2.7,50,0.00,,---,0.00,VWS V13.01,2013-01-31 19:51:00,
2013-01-31 11:56:00,47.5,29.8,30.50,South,180,2.2,2.2,50,0.00,,---,0.00,VWS V13.01,2013-01-31 19:56:00,
2013-01-31 12:01:00,48.4,30.1,30.50,SSE,158,0.0,0.0,49,0.00,,---,0.00,VWS V13.01,2013-01-31 20:01:00,
2013-01-31 12:06:00,48.4,29.6,30.50,SSE,158,2.2,2.2,48,0.00,,---,0.00,VWS V13.01,2013-01-31 20:06:00,
2013-01-31 12:11:00,48.7,29.4,30.50,SSE,158,0.0,0.0,47,0.00,,---,0.00,VWS V13.01,2013-01-31 20:11:00,
2013-01-31 12:16:00,48.9,29.6,30.50,SSE,158,0.0,0.0,47,0.00,,---,0.00,VWS V13.01,2013-01-31 20:16:00,
2013-01-31 12:21:00,48.9,29.6,30.50,SE,135,2.7,2.7,47,0.00,,---,0.00,VWS V13.01,2013-01-31 20:21:00,
2013-01-31 12:26:00,48.9,29.6,30.50,SE,135,0.0,2.2,47,0.00,,---,0.00,VWS V13.01,2013-01-31 20:26:00,
2013-01-31 12:31:00,49.6,29.7,30.50,South,180,2.7,3.6,46,0.00,,---,0.00,VWS V13.01,2013-01-31 20:31:00,
2013-01-31 12:36:00,49.1,29.2,30.50,South,180,0.0,0.0,46,0.00,,---,0.00,VWS V13.01,2013-01-31 20:36:00,
2013-01-31 12:41:00,50.2,29.7,30.50,South,180,0.0,0.0,45,0.00,,---,0.00,VWS V13.01,2013-01-31 20:41:00,
2013-01-31 12:46:00,50.2,29.7,30.50,South,180,0.0,0.0,45,0.00,,---,0.00,VWS V13.01,2013-01-31 20:46:00,
2013-01-31 12:51:00,51.1,30.5,30.50,South,180,0.0,0.0,45,0.00,,---,0.00,VWS V13.01,2013-01-31 20:51:00,
2013-01-31 12:56:00,51.6,31.0,30.50,South,180,3.6,3.6,45,0.00,,---,0.00,VWS V13.01,2013-01-31 20:56:00,
2013-01-31 13:01:00,51.6,29.9,30.50,South,180,0.0,0.0,43,0.00,,---,0.00,VWS V13.01,2013-01-31 21:01:00,
2013-01-31 13:06:00,51.1,29.4,30.50,SE,135,0.0,2.7,43,0.00,,---,0.00,VWS V13.01,2013-01-31 21:06:00,
2013-01-31 13:11:00,51.3,29.5,30.50,NE,45,2.7,2.7,43,0.00,,---,0.00,VWS V13.01,2013-01-31 21:11:00,
2013-01-31 13:16:00,50.9,29.2,30.50,NNE,22,3.1,3.6,43,0.00,,---,0.00,VWS V13.01,2013-01-31 21:16:00,
2013-01-31 13:21:00,50.7,28.5,30.50,SW,225,0.0,3.1,42,0.00,,---,0.00,VWS V13.01,2013-01-31 21:21:00,
2013-01-31 13:26:00,51.4,29.1,30.50,SW,225,3.1,3.6,42,0.00,,---,0.00,VWS V13.01,2013-01-31 21:26:00,
2013-01-31 13:31:00,51.6,29.9,30.50,North,0,3.6,5.8,43,0.00,,---,0.00,VWS V13.01,2013-01-31 21:31:00,
2013-01-31 13:36:00,50.7,29.1,30.47,NE,45,4.9,5.4,43,0.00,,---,0.00,VWS V13.01,2013-01-31 21:36:00,
2013-01-31 13:41:00,50.5,28.3,30.47,NE,45,0.0,2.7,42,0.00,,---,0.00,VWS V13.01,2013-01-31 21:41:00,
2013-01-31 13:46:00,50.5,27.7,30.47,North,0,6.3,6.7,41,0.00,,---,0.00,VWS V13.01,2013-01-31 21:46:00,
2013-01-31 13:51:00,50.0,27.2,30.50,North,0,6.3,6.3,41,0.00,,---,0.00,VWS V13.01,2013-01-31 21:51:00,
2013-01-31 13:56:00,49.3,27.2,30.50,North,0,4.9,6.3,42,0.00,,---,0.00,VWS V13.01,2013-01-31 21:56:00,
2013-01-31 14:01:00,48.7,27.3,30.50,North,0,5.8,5.8,43,0.00,,---,0.00,VWS V13.01,2013-01-31 22:01:00,
2013-01-31 14:06:00,48.2,27.3,30.47,North,0,4.9,6.3,44,0.00,,---,0.00,VWS V13.01,2013-01-31 22:06:00,
2013-01-31 14:11:00,48.6,27.6,30.47,North,0,0.0,3.6,44,0.00,,---,0.00,VWS V13.01,2013-01-31 22:11:00,
2013-01-31 14:16:00,49.1,28.1,30.47,North,0,5.8,5.8,44,0.00,,---,0.00,VWS V13.01,2013-01-31 22:16:00,
2013-01-31 14:21:00,49.1,28.1,30.47,North,0,2.7,3.1,44,0.00,,---,0.00,VWS V13.01,2013-01-31 22:21:00,
2013-01-31 14:26:00,49.5,27.9,30.47,West,270,3.1,4.0,43,0.00,,---,0.00,VWS V13.01,2013-01-31 22:26:00,
2013-01-31 14:31:00,49.8,27.7,30.47,North,0,2.7,4.9,42,0.00,,---,0.00,VWS V13.01,2013-01-31 22:31:00,
2013-01-31 14:36:00,50.0,27.2,30.47,North,0,4.0,5.8,41,0.00,,---,0.00,VWS V13.01,2013-01-31 22:36:00,
2013-01-31 14:41:00,49.6,27.5,30.47,NE,45,4.9,5.4,42,0.00,,---,0.00,VWS V13.01,2013-01-31 22:41:00,
2013-01-31 14:46:00,49.6,28.1,30.47,North,0,4.9,5.8,43,0.00,,---,0.00,VWS V13.01,2013-01-31 22:46:00,
2013-01-31 14:51:00,49.8,27.7,30.47,North,0,3.1,4.9,42,0.00,,---,0.00,VWS V13.01,2013-01-31 22:51:00,
2013-01-31 14:56:00,50.0,27.8,30.47,NNW,338,0.0,4.9,42,0.00,,---,0.00,VWS V13.01,2013-01-31 22:56:00,
2013-01-31 15:01:00,50.5,28.3,30.47,North,0,3.6,3.6,42,0.00,,---,0.00,VWS V13.01,2013-01-31 23:01:00,
2013-01-31 15:06:00,50.9,28.6,30.47,West,270,2.7,3.1,42,0.00,,---,0.00,VWS V13.01,2013-01-31 23:06:00,
2013-01-31 15:11:00,50.0,27.8,30.47,NNE,22,2.7,2.7,42,0.00,,---,0.00,VWS V13.01,2013-01-31 23:11:00,
2013-01-31 15:16:00,49.5,27.3,30.47,North,0,3.6,3.6,42,0.00,,---,0.00,VWS V13.01,2013-01-31 23:16:00,
2013-01-31 15:21:00,49.1,27.6,30.47,NE,45,4.0,4.0,43,0.00,,---,0.00,VWS V13.01,2013-01-31 23:21:00,
2013-01-31 15:26:00,48.7,27.3,30.47,NW,315,3.1,3.1,43,0.00,,---,0.00,VWS V13.01,2013-01-31 23:26:00,
2013-01-31 15:31:00,48.6,27.6,30.47,NNW,338,3.6,3.6,44,0.00,,---,0.00,VWS V13.01,2013-01-31 23:31:00,
2013-01-31 15:36:00,48.6,27.6,30.47,NNE,22,3.6,3.6,44,0.00,,---,0.00,VWS V13.01,2013-01-31 23:36:00,
2013-01-31 15:41:00,48.6,27.6,30.47,NE,45,4.5,4.5,44,0.00,,---,0.00,VWS V13.01,2013-01-31 23:41:00,
2013-01-31 15:46:00,48.4,27.5,30.47,NE,45,2.7,2.7,44,0.00,,---,0.00,VWS V13.01,2013-01-31 23:46:00,
2013-01-31 15:51:00,48.4,27.5,30.47,West,270,3.6,3.6,44,0.00,,---,0.00,VWS V13.01,2013-01-31 23:51:00,
2013-01-31 15:56:00,48.0,27.7,30.47,West,270,2.2,2.2,45,0.00,,---,0.00,VWS V13.01,2013-01-31 23:56:00,
2013-01-31 16:01:00,48.0,27.7,30.47,West,270,2.2,2.2,45,0.00,,---,0.00,VWS V13.01,2013-02-01 00:01:00,
2013-01-31 16:06:00,47.7,27.9,30.47,West,270,3.1,3.1,46,0.00,,---,0.00,VWS V13.01,2013-02-01 00:06:00,
2013-01-31 16:11:00,47.7,27.9,30.47,WNW,292,0.0,0.0,46,0.00,,---,0.00,VWS V13.01,2013-02-01 00:11:00,
2013-01-31 16:16:00,47.5,27.8,30.47,WNW,292,0.0,0.0,46,0.00,,---,0.00,VWS V13.01,2013-02-01 00:16:00,
2013-01-31 16:21:00,46.9,27.8,30.47,WNW,292,0.0,0.0,47,0.00,,---,0.00,VWS V13.01,2013-02-01 00:21:00,
2013-01-31 16:26:00,46.9,27.8,30.47,WNW,292,0.0,0.0,47,0.00,,---,0.00,VWS V13.01,2013-02-01 00:26:00,
2013-01-31 16:31:00,46.8,27.6,30.47,WNW,292,0.0,0.0,47,0.00,,---,0.00,VWS V13.01,2013-02-01 00:31:00,
2013-01-31 16:36:00,46.0,27.5,30.47,WNW,292,0.0,0.0,48,0.00,,---,0.00,VWS V13.01,2013-02-01 00:36:00,
2013-01-31 16:41:00,45.5,27.5,30.47,WNW,292,0.0,0.0,49,0.00,,---,0.00,VWS V13.01,2013-02-01 00:41:00,
2013-01-31 16:46:00,45.0,27.0,30.47,WNW,292,0.0,0.0,49,0.00,,---,0.00,VWS V13.01,2013-02-01 00:46:00,
2013-01-31 16:51:00,44.2,27.3,30.47,WNW,292,0.0,0.0,51,0.00,,---,0.00,VWS V13.01,2013-02-01 00:51:00,
2013-01-31 16:56:00,43.5,27.1,30.47,WNW,292,0.0,0.0,52,0.00,,---,0.00,VWS V13.01,2013-02-01 00:56:00,
2013-01-31 17:01:00,43.0,27.0,30.47,WNW,292,0.0,0.0,53,0.00,,---,0.00,VWS V13.01,2013-02-01 01:01:00,
2013-01-31 17:06:00,42.6,27.6,30.47,WNW,292,0.0,0.0,55,0.00,,---,0.00,VWS V13.01,2013-02-01 01:06:00,
2013-01-31 17:11:00,41.9,26.9,30.47,WNW,292,0.0,0.0,55,0.00,,---,0.00,VWS V13.01,2013-02-01 01:11:00,
2013-01-31 17:16:00,41.5,27.5,30.47,WNW,292,0.0,0.0,57,0.00,,---,0.00,VWS V13.01,2013-02-01 01:16:00,
2013-01-31 17:21:00,41.0,27.4,30.47,WNW,292,0.0,0.0,58,0.00,,---,0.00,VWS V13.01,2013-02-01 01:21:00,
2013-01-31 17:26:00,40.8,28.0,30.47,WNW,292,0.0,0.0,60,0.00,,---,0.00,VWS V13.01,2013-02-01 01:26:00,
2013-01-31 17:31:00,40.6,28.3,30.47,WNW,292,0.0,0.0,61,0.00,,---,0.00,VWS V13.01,2013-02-01 01:31:00,
2013-01-31 17:36:00,40.3,27.9,30.47,WNW,292,0.0,0.0,61,0.00,,---,0.00,VWS V13.01,2013-02-01 01:36:00,
2013-01-31 17:41:00,40.5,28.5,30.47,WNW,292,0.0,0.0,62,0.00,,---,0.00,VWS V13.01,2013-02-01 01:41:00,
2013-01-31 17:46:00,40.1,28.1,30.47,WNW,292,0.0,0.0,62,0.00,,---,0.00,VWS V13.01,2013-02-01 01:46:00,
2013-01-31 17:51:00,39.7,28.2,30.47,WNW,292,0.0,0.0,63,0.00,,---,0.00,VWS V13.01,2013-02-01 01:51:00,
2013-01-31 17:56:00,39.0,27.5,30.47,WNW,292,0.0,0.0,63,0.00,,---,0.00,VWS V13.01,2013-02-01 01:56:00,
2013-01-31 18:01:00,38.7,27.5,30.47,WNW,292,0.0,0.0,64,0.00,,---,0.00,VWS V13.01,2013-02-01 02:01:00,
2013-01-31 18:06:00,37.9,27.2,30.47,WNW,292,0.0,0.0,65,0.00,,---,0.00,VWS V13.01,2013-02-01 02:06:00,
2013-01-31 18:11:00,37.4,27.1,30.47,WNW,292,0.0,0.0,66,0.00,,---,0.00,VWS V13.01,2013-02-01 02:11:00,
2013-01-31 18:16:00,36.9,27.3,30.47,WNW,292,0.0,0.0,68,0.00,,---,0.00,VWS V13.01,2013-02-01 02:16:00,
2013-01-31 18:21:00,36.3,27.1,30.47,WNW,292,0.0,0.0,69,0.00,,---,0.00,VWS V13.01,2013-02-01 02:21:00,
2013-01-31 18:26:00,36.1,27.0,30.47,WNW,292,0.0,0.0,69,0.00,,---,0.00,VWS V13.01,2013-02-01 02:26:00,
2013-01-31 18:31:00,35.4,26.6,30.47,WNW,292,0.0,0.0,70,0.00,,---,0.00,VWS V13.01,2013-02-01 02:31:00,
2013-01-31 18:36:00,35.1,27.0,30.47,WNW,292,0.0,0.0,72,0.00,,---,0.00,VWS V13.01,2013-02-01 02:36:00,
2013-01-31 18:41:00,34.5,26.4,30.47,WNW,292,0.0,0.0,72,0.00,,---,0.00,VWS V13.01,2013-02-01 02:41:00,
2013-01-31 18:46:00,34.0,26.2,30.47,WNW,292,0.0,0.0,73,0.00,,---,0.00,VWS V13.01,2013-02-01 02:46:00,
2013-01-31 18:51:00,33.6,26.6,30.47,WNW,292,0.0,0.0,75,0.00,,---,0.00,VWS V13.01,2013-02-01 02:51:00,
2013-01-31 18:56:00,33.8,27.0,30.47,WNW,292,0.0,0.0,76,0.00,,---,0.00,VWS V13.01,2013-02-01 02:56:00,
2013-01-31 19:01:00,34.0,27.5,30.47,WNW,292,0.0,0.0,77,0.00,,---,0.00,VWS V13.01,2013-02-01 03:01:00,
2013-01-31 19:06:00,34.3,28.2,30.47,WNW,292,0.0,0.0,78,0.00,,---,0.00,VWS V13.01,2013-02-01 03:06:00,
2013-01-31 19:11:00,34.0,27.9,30.47,WNW,292,0.0,0.0,78,0.00,,---,0.00,VWS V13.01,2013-02-01 03:11:00,
2013-01-31 19:16:00,34.7,28.9,30.47,WNW,292,0.0,0.0,79,0.00,,---,0.00,VWS V13.01,2013-02-01 03:16:00,
2013-01-31 19:21:00,35.8,29.6,30.47,WNW,292,2.2,3.1,78,0.00,,---,0.00,VWS V13.01,2013-02-01 03:21:00,
2013-01-31 19:26:00,36.3,29.5,30.47,WNW,292,0.0,0.0,76,0.00,,---,0.00,VWS V13.01,2013-02-01 03:26:00,
2013-01-31 19:31:00,35.4,28.6,30.47,WNW,292,0.0,0.0,76,0.00,,---,0.00,VWS V13.01,2013-02-01 03:31:00,
2013-01-31 19:36:00,34.9,27.8,30.47,WNW,292,0.0,0.0,75,0.00,,---,0.00,VWS V13.01,2013-02-01 03:36:00,
2013-01-31 19:41:00,34.3,27.2,30.47,WNW,292,0.0,0.0,75,0.00,,---,0.00,VWS V13.01,2013-02-01 03:41:00,
2013-01-31 19:46:00,33.6,26.6,30.47,WNW,292,0.0,0.0,75,0.00,,---,0.00,VWS V13.01,2013-02-01 03:46:00,
2013-01-31 19:51:00,33.3,26.5,30.50,WNW,292,0.0,0.0,76,0.00,,---,0.00,VWS V13.01,2013-02-01 03:51:00,
2013-01-31 19:56:00,32.7,26.3,30.50,WNW,292,2.2,2.2,77,0.00,,---,0.00,VWS V13.01,2013-02-01 03:56:00,
2013-01-31 20:01:00,32.5,26.5,30.50,WNW,292,0.0,0.0,78,0.00,,---,0.00,VWS V13.01,2013-02-01 04:01:00,
2013-01-31 20:06:00,32.2,26.1,30.50,WNW,292,0.0,0.0,78,0.00,,---,0.00,VWS V13.01,2013-02-01 04:06:00,
2013-01-31 20:11:00,32.4,26.6,30.50,WNW,292,0.0,0.0,79,0.00,,---,0.00,VWS V13.01,2013-02-01 04:11:00,
2013-01-31 20:16:00,32.5,27.1,30.50,WNW,292,0.0,0.0,80,0.00,,---,0.00,VWS V13.01,2013-02-01 04:16:00,
2013-01-31 20:21:00,32.5,27.4,30.50,WNW,292,0.0,0.0,81,0.00,,---,0.00,VWS V13.01,2013-02-01 04:21:00,
2013-01-31 20:26:00,32.9,28.0,30.50,WNW,292,0.0,0.0,82,0.00,,---,0.00,VWS V13.01,2013-02-01 04:26:00,
2013-01-31 20:31:00,33.1,28.2,30.50,WNW,292,0.0,0.0,82,0.00,,---,0.00,VWS V13.01,2013-02-01 04:31:00,
2013-01-31 20:36:00,33.4,28.5,30.50,WNW,292,0.0,0.0,82,0.00,,---,0.00,VWS V13.01,2013-02-01 04:36:00,
2013-01-31 20:41:00,33.4,28.5,30.50,WNW,292,0.0,0.0,82,0.00,,---,0.00,VWS V13.01,2013-02-01 04:41:00,
2013-01-31 20:46:00,33.1,27.9,30.50,WNW,292,0.0,0.0,81,0.00,,---,0.00,VWS V13.01,2013-02-01 04:46:00,
2013-01-31 20:51:00,32.7,27.5,30.50,WNW,292,0.0,0.0,81,0.00,,---,0.00,VWS V13.01,2013-02-01 04:51:00,
2013-01-31 20:56:00,32.5,27.4,30.50,WNW,292,0.0,0.0,81,0.00,,---,0.00,VWS V13.01,2013-02-01 04:56:00,
2013-01-31 21:00:00,32.0,26.8,30.50,WNW,292,0.0,0.0,81,0.00,,---,0.00,VWS V13.01,2013-02-01 05:00:00,
2013-01-31 21:01:00,32.0,26.8,30.50,WNW,292,0.0,0.0,81,0.00,,---,0.00,VWS V13.01,2013-02-01 05:01:00,
2013-01-31 21:03:00,32.0,26.8,30.50,WNW,292,0.0,0.0,81,0.00,,---,0.00,VWS V13.01,2013-02-01 05:03:00,
2013-01-31 21:08:00,32.0,26.8,30.50,WNW,292,0.0,0.0,81,0.00,,---,0.00,VWS V13.01,2013-02-01 05:08:00,
2013-01-31 21:13:00,31.8,27.5,30.50,WNW,292,2.2,2.2,84,0.00,,---,0.00,VWS V13.01,2013-02-01 05:13:00,
2013-01-31 21:18:00,32.0,27.7,30.50,WNW,292,0.0,0.0,84,0.00,,---,0.00,VWS V13.01,2013-02-01 05:18:00,
2013-01-31 21:23:00,31.8,27.5,30.50,WNW,292,2.7,2.7,84,0.00,,---,0.00,VWS V13.01,2013-02-01 05:23:00,
2013-01-31 21:28:00,31.8,27.5,30.50,WNW,292,0.0,2.7,84,0.00,,---,0.00,VWS V13.01,2013-02-01 05:28:00,
2013-01-31 21:33:00,32.0,27.7,30.50,WNW,292,0.0,0.0,84,0.00,,---,0.00,VWS V13.01,2013-02-01 05:33:00,
2013-01-31 21:38:00,32.0,28.0,30.50,WNW,292,3.1,3.1,85,0.00,,---,0.00,VWS V13.01,2013-02-01 05:38:00,
2013-01-31 21:43:00,32.0,28.0,30.50,WNW,292,0.0,0.0,85,0.00,,---,0.00,VWS V13.01,2013-02-01 05:43:00,
2013-01-31 21:48:00,31.8,27.8,30.50,WNW,292,0.0,0.0,85,0.00,,---,0.00,VWS V13.01,2013-02-01 05:48:00,
2013-01-31 21:53:00,31.6,27.7,30.50,WNW,292,0.0,0.0,85,0.00,,---,0.00,VWS V13.01,2013-02-01 05:53:00,
2013-01-31 21:58:00,31.8,27.8,30.50,WNW,292,2.7,2.7,85,0.00,,---,0.00,VWS V13.01,2013-02-01 05:58:00,
2013-01-31 22:03:00,31.8,27.8,30.50,WNW,292,2.7,2.7,85,0.00,,---,0.00,VWS V13.01,2013-02-01 06:03:00,
2013-01-31 22:08:00,31.6,27.7,30.50,WNW,292,2.2,2.7,85,0.00,,---,0.00,VWS V13.01,2013-02-01 06:08:00,
2013-01-31 22:13:00,31.6,27.7,30.50,WNW,292,0.0,0.0,85,0.00,,---,0.00,VWS V13.01,2013-02-01 06:13:00,
2013-01-31 22:18:00,31.5,27.5,30.50,WNW,292,0.0,0.0,85,0.00,,---,0.00,VWS V13.01,2013-02-01 06:18:00,
2013-01-31 22:23:00,31.3,27.3,30.50,WNW,292,0.0,0.0,85,0.00,,---,0.00,VWS V13.01,2013-02-01 06:23:00,
2013-01-31 22:28:00,31.1,27.1,30.50,WNW,292,0.0,0.0,85,0.00,,---,0.00,VWS V13.01,2013-02-01 06:28:00,
2013-01-31 22:33:00,31.1,27.1,30.50,WNW,292,2.7,2.7,85,0.00,,---,0.00,VWS V13.01,2013-02-01 06:33:00,
2013-01-31 22:38:00,31.1,27.1,30.50,WNW,292,2.2,2.2,85,0.00,,---,0.00,VWS V13.01,2013-02-01 06:38:00,
2013-01-31 22:43:00,30.9,27.2,30.50,WNW,292,4.0,4.0,86,0.00,,---,0.00,VWS V13.01,2013-02-01 06:43:00,
2013-01-31 22:48:00,31.3,27.9,30.50,WNW,292,0.0,0.0,87,0.00,,---,0.00,VWS V13.01,2013-02-01 06:48:00,
2013-01-31 22:53:00,31.3,27.9,30.50,WNW,292,2.2,2.2,87,0.00,,---,0.00,VWS V13.01,2013-02-01 06:53:00,
2013-01-31 22:58:00,31.3,27.9,30.50,WNW,292,2.2,2.2,87,0.00,,---,0.00,VWS V13.01,2013-02-01 06:58:00,
2013-01-31 23:03:00,31.3,27.9,30.50,WNW,292,2.2,2.2,87,0.00,,---,0.00,VWS V13.01,2013-02-01 07:03:00,
2013-01-31 23:08:00,30.2,26.8,30.50,West,270,4.0,4.0,87,0.00,,---,0.00,VWS V13.01,2013-02-01 07:08:00,
2013-01-31 23:13:00,30.2,26.8,30.50,West,270,4.0,4.0,87,0.00,,---,0.00,VWS V13.01,2013-02-01 07:13:00,
2013-01-31 23:18:00,30.2,26.8,30.50,West,270,4.0,4.0,87,0.00,,---,0.00,VWS V13.01,2013-02-01 07:18:00,
2013-01-31 23:23:00,30.2,26.8,30.50,West,270,4.0,4.0,87,0.00,,---,0.00,VWS V13.01,2013-02-01 07:23:00,
2013-01-31 23:28:00,30.2,26.8,30.50,West,270,4.0,4.0,87,0.00,,---,0.00,VWS V13.01,2013-02-01 07:28:00,
2013-01-31 23:33:00,30.2,26.8,30.50,West,270,4.0,4.0,87,0.00,,---,0.00,VWS V13.01,2013-02-01 07:33:00,
2013-01-31 23:38:00,30.2,26.8,30.50,West,270,4.0,4.0,87,0.00,,---,0.00,VWS V13.01,2013-02-01 07:38:00,
2013-01-31 23:43:00,30.2,26.8,30.50,West,270,4.0,4.0,87,0.00,,---,0.00,VWS V13.01,2013-02-01 07:43:00,
2013-01-31 23:48:00,30.2,26.8,30.50,West,270,4.0,4.0,87,0.00,,---,0.00,VWS V13.01,2013-02-01 07:48:00,
2013-01-31 23:53:00,30.2,26.8,30.50,West,270,4.0,4.0,87,0.00,,---,0.00,VWS V13.01,2013-02-01 07:53:00,
2013-01-31 23:58:00,30.2,26.8,30.50,West,270,4.0,4.0,87,0.00,,---,0.00,VWS V13.01,2013-02-01 07:58:00,